sensor_id;sensor_type;location;lat;lon;timestamp;P1;durP1;ratioP1;P2;durP2;ratioP2
39782;SDS011;25462;51.164;17.100;2023-05-02T00:02:09;8.80;;;6.30;;
39782;SDS011;25462;51.164;17.100;2023-05-02T00:07:14;11.20;;;6.80;;
39782;SDS011;25462;51.164;17.100;2023-05-02T00:12:18;10.30;;;6.40;;
39782;SDS011;25462;51.164;17.100;2023-05-02T00:17:23;9.00;;;5.90;;
39782;SDS011;25462;51.164;17.100;2023-05-02T00:22:27;12.40;;;7.20;;
39782;SDS011;25462;51.164;17.100;2023-05-02T00:27:32;10.60;;;6.80;;
39782;SDS011;25462;51.164;17.100;2023-05-02T00:32:38;10.90;;;6.90;;
39782;SDS011;25462;51.164;17.100;2023-05-02T00:37:43;10.90;;;6.90;;
39782;SDS011;25462;51.164;17.100;2023-05-02T00:42:47;11.10;;;7.10;;
39782;SDS011;25462;51.164;17.100;2023-05-02T00:47:52;10.50;;;7.40;;
39782;SDS011;25462;51.164;17.100;2023-05-02T00:52:58;11.90;;;8.00;;
39782;SDS011;25462;51.164;17.100;2023-05-02T00:58:10;12.60;;;7.60;;
39782;SDS011;25462;51.164;17.100;2023-05-02T01:03:33;14.90;;;7.10;;
39782;SDS011;25462;51.164;17.100;2023-05-02T01:08:59;13.50;;;8.10;;
39782;SDS011;25462;51.164;17.100;2023-05-02T01:14:11;12.20;;;7.80;;
39782;SDS011;25462;51.164;17.100;2023-05-02T01:19:21;12.90;;;8.10;;
39782;SDS011;25462;51.164;17.100;2023-05-02T01:24:53;14.10;;;7.60;;
39782;SDS011;25462;51.164;17.100;2023-05-02T01:30:06;13.50;;;7.90;;
39782;SDS011;25462;51.164;17.100;2023-05-02T01:35:15;11.20;;;7.20;;
39782;SDS011;25462;51.164;17.100;2023-05-02T01:40:19;11.00;;;7.10;;
39782;SDS011;25462;51.164;17.100;2023-05-02T01:45:25;12.40;;;7.90;;
39782;SDS011;25462;51.164;17.100;2023-05-02T01:50:30;13.60;;;8.50;;
39782;SDS011;25462;51.164;17.100;2023-05-02T01:55:34;11.10;;;8.40;;
39782;SDS011;25462;51.164;17.100;2023-05-02T02:00:39;10.90;;;7.70;;
39782;SDS011;25462;51.164;17.100;2023-05-02T02:05:44;11.50;;;7.60;;
39782;SDS011;25462;51.164;17.100;2023-05-02T02:10:53;14.20;;;8.90;;
39782;SDS011;25462;51.164;17.100;2023-05-02T02:16:00;11.30;;;7.80;;
39782;SDS011;25462;51.164;17.100;2023-05-02T02:21:08;15.50;;;7.50;;
39782;SDS011;25462;51.164;17.100;2023-05-02T02:26:14;13.60;;;7.90;;
39782;SDS011;25462;51.164;17.100;2023-05-02T02:31:21;10.60;;;7.40;;
39782;SDS011;25462;51.164;17.100;2023-05-02T02:37:02;12.20;;;7.60;;
39782;SDS011;25462;51.164;17.100;2023-05-02T02:47:35;13.40;;;9.00;;
39782;SDS011;25462;51.164;17.100;2023-05-02T02:52:58;11.10;;;7.80;;
39782;SDS011;25462;51.164;17.100;2023-05-02T03:03:29;12.50;;;8.60;;
39782;SDS011;25462;51.164;17.100;2023-05-02T03:08:40;13.20;;;7.80;;
39782;SDS011;25462;51.164;17.100;2023-05-02T03:13:46;12.40;;;8.30;;
39782;SDS011;25462;51.164;17.100;2023-05-02T03:18:52;10.90;;;8.00;;
39782;SDS011;25462;51.164;17.100;2023-05-02T03:24:00;9.90;;;7.10;;
39782;SDS011;25462;51.164;17.100;2023-05-02T03:29:09;10.60;;;6.80;;
39782;SDS011;25462;51.164;17.100;2023-05-02T03:34:16;8.90;;;6.30;;
39782;SDS011;25462;51.164;17.100;2023-05-02T03:39:22;13.40;;;6.30;;
39782;SDS011;25462;51.164;17.100;2023-05-02T03:44:26;7.60;;;5.10;;
39782;SDS011;25462;51.164;17.100;2023-05-02T03:49:32;7.80;;;4.90;;
39782;SDS011;25462;51.164;17.100;2023-05-02T03:54:39;9.50;;;5.70;;
39782;SDS011;25462;51.164;17.100;2023-05-02T03:59:43;7.20;;;4.30;;
39782;SDS011;25462;51.164;17.100;2023-05-02T04:04:51;8.00;;;4.70;;
39782;SDS011;25462;51.164;17.100;2023-05-02T04:09:58;7.50;;;4.50;;
39782;SDS011;25462;51.164;17.100;2023-05-02T04:15:03;6.70;;;4.60;;
39782;SDS011;25462;51.164;17.100;2023-05-02T04:20:09;10.40;;;4.80;;
39782;SDS011;25462;51.164;17.100;2023-05-02T04:25:21;6.50;;;3.90;;
39782;SDS011;25462;51.164;17.100;2023-05-02T04:30:30;8.20;;;4.00;;
39782;SDS011;25462;51.164;17.100;2023-05-02T04:35:40;8.60;;;4.30;;
39782;SDS011;25462;51.164;17.100;2023-05-02T04:40:50;8.50;;;4.40;;
39782;SDS011;25462;51.164;17.100;2023-05-02T04:46:06;8.10;;;4.20;;
39782;SDS011;25462;51.164;17.100;2023-05-02T04:51:13;9.80;;;4.50;;
39782;SDS011;25462;51.164;17.100;2023-05-02T04:56:22;6.00;;;3.70;;
39782;SDS011;25462;51.164;17.100;2023-05-02T05:01:26;7.00;;;4.70;;
39782;SDS011;25462;51.164;17.100;2023-05-02T05:06:32;8.00;;;4.10;;
39782;SDS011;25462;51.164;17.100;2023-05-02T05:11:37;6.60;;;4.20;;
39782;SDS011;25462;51.164;17.100;2023-05-02T05:16:42;6.30;;;3.80;;
39782;SDS011;25462;51.164;17.100;2023-05-02T05:21:47;11.00;;;4.80;;
39782;SDS011;25462;51.164;17.100;2023-05-02T05:26:56;6.40;;;4.60;;
39782;SDS011;25462;51.164;17.100;2023-05-02T05:32:01;7.10;;;4.30;;
39782;SDS011;25462;51.164;17.100;2023-05-02T05:37:05;6.50;;;4.10;;
39782;SDS011;25462;51.164;17.100;2023-05-02T05:42:10;7.90;;;4.30;;
39782;SDS011;25462;51.164;17.100;2023-05-02T05:47:19;7.70;;;4.50;;
39782;SDS011;25462;51.164;17.100;2023-05-02T05:52:28;7.20;;;4.00;;
39782;SDS011;25462;51.164;17.100;2023-05-02T05:57:37;9.20;;;5.00;;
39782;SDS011;25462;51.164;17.100;2023-05-02T06:02:46;9.30;;;5.10;;
39782;SDS011;25462;51.164;17.100;2023-05-02T06:08:00;9.90;;;5.30;;
39782;SDS011;25462;51.164;17.100;2023-05-02T06:13:05;8.90;;;5.10;;
39782;SDS011;25462;51.164;17.100;2023-05-02T06:18:12;8.90;;;4.60;;
39782;SDS011;25462;51.164;17.100;2023-05-02T06:23:19;8.30;;;5.50;;
39782;SDS011;25462;51.164;17.100;2023-05-02T06:28:24;8.90;;;5.70;;
39782;SDS011;25462;51.164;17.100;2023-05-02T06:33:29;8.10;;;5.30;;
39782;SDS011;25462;51.164;17.100;2023-05-02T06:38:35;7.30;;;5.10;;
39782;SDS011;25462;51.164;17.100;2023-05-02T06:43:39;7.90;;;5.00;;
39782;SDS011;25462;51.164;17.100;2023-05-02T06:48:44;9.10;;;5.20;;
39782;SDS011;25462;51.164;17.100;2023-05-02T06:53:48;8.90;;;5.10;;
39782;SDS011;25462;51.164;17.100;2023-05-02T06:58:54;9.10;;;5.00;;
39782;SDS011;25462;51.164;17.100;2023-05-02T07:03:59;9.70;;;5.30;;
39782;SDS011;25462;51.164;17.100;2023-05-02T07:09:05;7.10;;;4.40;;
39782;SDS011;25462;51.164;17.100;2023-05-02T07:14:11;6.30;;;4.40;;
39782;SDS011;25462;51.164;17.100;2023-05-02T07:19:15;9.30;;;4.30;;
39782;SDS011;25462;51.164;17.100;2023-05-02T07:24:19;6.80;;;4.50;;
39782;SDS011;25462;51.164;17.100;2023-05-02T07:29:23;8.00;;;4.20;;
39782;SDS011;25462;51.164;17.100;2023-05-02T07:34:28;7.50;;;4.60;;
39782;SDS011;25462;51.164;17.100;2023-05-02T07:39:34;8.40;;;4.70;;
39782;SDS011;25462;51.164;17.100;2023-05-02T07:44:38;9.10;;;5.60;;
39782;SDS011;25462;51.164;17.100;2023-05-02T07:49:45;8.40;;;5.00;;
39782;SDS011;25462;51.164;17.100;2023-05-02T07:54:53;7.30;;;4.80;;
39782;SDS011;25462;51.164;17.100;2023-05-02T07:59:57;9.30;;;5.00;;
39782;SDS011;25462;51.164;17.100;2023-05-02T08:05:02;11.40;;;4.70;;
39782;SDS011;25462;51.164;17.100;2023-05-02T08:10:07;9.70;;;5.70;;
39782;SDS011;25462;51.164;17.100;2023-05-02T08:15:12;7.00;;;4.80;;
39782;SDS011;25462;51.164;17.100;2023-05-02T08:20:16;7.90;;;4.70;;
39782;SDS011;25462;51.164;17.100;2023-05-02T08:25:21;11.60;;;4.90;;
39782;SDS011;25462;51.164;17.100;2023-05-02T08:30:26;9.10;;;5.40;;
39782;SDS011;25462;51.164;17.100;2023-05-02T08:35:31;9.10;;;5.00;;
39782;SDS011;25462;51.164;17.100;2023-05-02T08:40:35;9.10;;;4.70;;
39782;SDS011;25462;51.164;17.100;2023-05-02T08:45:46;6.90;;;5.50;;
39782;SDS011;25462;51.164;17.100;2023-05-02T08:50:54;7.80;;;5.20;;
39782;SDS011;25462;51.164;17.100;2023-05-02T08:55:58;6.10;;;4.10;;
39782;SDS011;25462;51.164;17.100;2023-05-02T09:01:08;6.40;;;4.50;;
39782;SDS011;25462;51.164;17.100;2023-05-02T09:06:17;8.10;;;4.60;;
39782;SDS011;25462;51.164;17.100;2023-05-02T09:11:23;6.90;;;4.30;;
39782;SDS011;25462;51.164;17.100;2023-05-02T09:16:27;8.90;;;5.10;;
39782;SDS011;25462;51.164;17.100;2023-05-02T09:21:37;7.20;;;4.50;;
39782;SDS011;25462;51.164;17.100;2023-05-02T09:26:55;7.90;;;4.40;;
39782;SDS011;25462;51.164;17.100;2023-05-02T09:32:01;6.90;;;4.20;;
39782;SDS011;25462;51.164;17.100;2023-05-02T09:37:06;7.70;;;4.70;;
39782;SDS011;25462;51.164;17.100;2023-05-02T09:42:10;6.70;;;3.90;;
39782;SDS011;25462;51.164;17.100;2023-05-02T09:47:23;7.40;;;4.60;;
39782;SDS011;25462;51.164;17.100;2023-05-02T09:52:29;13.70;;;5.70;;
39782;SDS011;25462;51.164;17.100;2023-05-02T09:57:39;7.30;;;4.90;;
39782;SDS011;25462;51.164;17.100;2023-05-02T10:02:47;8.50;;;4.80;;
39782;SDS011;25462;51.164;17.100;2023-05-02T10:07:52;7.90;;;5.10;;
39782;SDS011;25462;51.164;17.100;2023-05-02T10:12:56;7.40;;;4.90;;
39782;SDS011;25462;51.164;17.100;2023-05-02T10:18:02;9.50;;;4.90;;
39782;SDS011;25462;51.164;17.100;2023-05-02T10:23:17;7.10;;;5.00;;
39782;SDS011;25462;51.164;17.100;2023-05-02T10:28:22;7.80;;;4.60;;
39782;SDS011;25462;51.164;17.100;2023-05-02T10:33:28;8.20;;;4.90;;
39782;SDS011;25462;51.164;17.100;2023-05-02T10:38:37;7.50;;;4.70;;
39782;SDS011;25462;51.164;17.100;2023-05-02T10:43:45;8.00;;;4.30;;
39782;SDS011;25462;51.164;17.100;2023-05-02T10:49:03;7.10;;;3.40;;
39782;SDS011;25462;51.164;17.100;2023-05-02T10:54:24;6.50;;;3.80;;
39782;SDS011;25462;51.164;17.100;2023-05-02T10:59:38;8.50;;;4.20;;
39782;SDS011;25462;51.164;17.100;2023-05-02T11:05:02;7.60;;;4.40;;
39782;SDS011;25462;51.164;17.100;2023-05-02T11:20:36;10.00;;;4.70;;
39782;SDS011;25462;51.164;17.100;2023-05-02T11:25:48;7.40;;;4.80;;
39782;SDS011;25462;51.164;17.100;2023-05-02T11:30:53;8.00;;;4.70;;
39782;SDS011;25462;51.164;17.100;2023-05-02T11:35:58;8.70;;;5.20;;
39782;SDS011;25462;51.164;17.100;2023-05-02T11:41:03;9.80;;;5.20;;
39782;SDS011;25462;51.164;17.100;2023-05-02T11:46:07;7.50;;;4.80;;
39782;SDS011;25462;51.164;17.100;2023-05-02T11:51:11;9.10;;;4.90;;
39782;SDS011;25462;51.164;17.100;2023-05-02T11:56:15;10.60;;;6.10;;
39782;SDS011;25462;51.164;17.100;2023-05-02T12:01:26;11.40;;;5.60;;
39782;SDS011;25462;51.164;17.100;2023-05-02T12:06:30;7.80;;;4.80;;
39782;SDS011;25462;51.164;17.100;2023-05-02T12:11:35;8.10;;;5.10;;
39782;SDS011;25462;51.164;17.100;2023-05-02T12:16:43;9.30;;;5.10;;
39782;SDS011;25462;51.164;17.100;2023-05-02T12:21:48;10.00;;;5.40;;
39782;SDS011;25462;51.164;17.100;2023-05-02T12:27:09;11.70;;;5.20;;
39782;SDS011;25462;51.164;17.100;2023-05-02T12:37:22;8.50;;;5.70;;
39782;SDS011;25462;51.164;17.100;2023-05-02T12:42:27;5.20;;;4.20;;
39782;SDS011;25462;51.164;17.100;2023-05-02T12:47:30;7.40;;;4.70;;
39782;SDS011;25462;51.164;17.100;2023-05-02T12:52:49;7.60;;;4.30;;
39782;SDS011;25462;51.164;17.100;2023-05-02T12:58:17;9.40;;;5.40;;
39782;SDS011;25462;51.164;17.100;2023-05-02T13:08:25;7.50;;;4.40;;
39782;SDS011;25462;51.164;17.100;2023-05-02T13:13:29;8.50;;;5.20;;
39782;SDS011;25462;51.164;17.100;2023-05-02T13:18:37;6.30;;;3.20;;
39782;SDS011;25462;51.164;17.100;2023-05-02T13:23:41;6.10;;;3.50;;
39782;SDS011;25462;51.164;17.100;2023-05-02T13:28:46;7.60;;;3.80;;
39782;SDS011;25462;51.164;17.100;2023-05-02T13:33:50;8.10;;;3.70;;
39782;SDS011;25462;51.164;17.100;2023-05-02T13:38:57;5.20;;;3.30;;
39782;SDS011;25462;51.164;17.100;2023-05-02T13:44:02;5.00;;;3.50;;
39782;SDS011;25462;51.164;17.100;2023-05-02T13:49:07;4.70;;;3.10;;
39782;SDS011;25462;51.164;17.100;2023-05-02T13:54:10;3.80;;;2.80;;
39782;SDS011;25462;51.164;17.100;2023-05-02T13:59:14;5.70;;;3.10;;
39782;SDS011;25462;51.164;17.100;2023-05-02T14:04:18;5.50;;;3.00;;
39782;SDS011;25462;51.164;17.100;2023-05-02T14:09:25;5.10;;;2.80;;
39782;SDS011;25462;51.164;17.100;2023-05-02T14:14:29;4.00;;;2.80;;
39782;SDS011;25462;51.164;17.100;2023-05-02T14:19:33;6.20;;;3.70;;
39782;SDS011;25462;51.164;17.100;2023-05-02T14:24:38;9.50;;;5.20;;
39782;SDS011;25462;51.164;17.100;2023-05-02T14:29:45;4.60;;;2.80;;
39782;SDS011;25462;51.164;17.100;2023-05-02T14:34:51;4.20;;;3.30;;
39782;SDS011;25462;51.164;17.100;2023-05-02T14:39:55;4.30;;;3.00;;
39782;SDS011;25462;51.164;17.100;2023-05-02T14:45:02;4.90;;;2.60;;
39782;SDS011;25462;51.164;17.100;2023-05-02T14:50:07;3.70;;;2.30;;
39782;SDS011;25462;51.164;17.100;2023-05-02T14:55:12;5.50;;;2.80;;
39782;SDS011;25462;51.164;17.100;2023-05-02T15:00:17;5.20;;;3.10;;
39782;SDS011;25462;51.164;17.100;2023-05-02T15:05:27;5.60;;;3.10;;
39782;SDS011;25462;51.164;17.100;2023-05-02T15:10:39;3.70;;;2.70;;
39782;SDS011;25462;51.164;17.100;2023-05-02T15:15:45;4.80;;;3.30;;
39782;SDS011;25462;51.164;17.100;2023-05-02T15:20:50;6.40;;;2.80;;
39782;SDS011;25462;51.164;17.100;2023-05-02T15:25:57;5.40;;;3.30;;
39782;SDS011;25462;51.164;17.100;2023-05-02T15:31:01;4.20;;;3.40;;
39782;SDS011;25462;51.164;17.100;2023-05-02T15:36:06;4.60;;;3.20;;
39782;SDS011;25462;51.164;17.100;2023-05-02T15:41:10;5.50;;;3.20;;
39782;SDS011;25462;51.164;17.100;2023-05-02T15:46:14;9.70;;;3.30;;
39782;SDS011;25462;51.164;17.100;2023-05-02T15:51:18;5.50;;;3.10;;
39782;SDS011;25462;51.164;17.100;2023-05-02T15:56:23;4.60;;;3.00;;
39782;SDS011;25462;51.164;17.100;2023-05-02T16:01:27;7.20;;;3.10;;
39782;SDS011;25462;51.164;17.100;2023-05-02T16:06:31;7.40;;;3.40;;
39782;SDS011;25462;51.164;17.100;2023-05-02T16:11:36;4.40;;;3.10;;
39782;SDS011;25462;51.164;17.100;2023-05-02T16:16:40;6.30;;;3.00;;
39782;SDS011;25462;51.164;17.100;2023-05-02T16:21:44;6.10;;;2.80;;
39782;SDS011;25462;51.164;17.100;2023-05-02T16:26:48;7.90;;;3.40;;
39782;SDS011;25462;51.164;17.100;2023-05-02T16:31:52;3.60;;;2.70;;
39782;SDS011;25462;51.164;17.100;2023-05-02T16:36:56;4.40;;;3.20;;
39782;SDS011;25462;51.164;17.100;2023-05-02T16:42:00;6.00;;;3.30;;
39782;SDS011;25462;51.164;17.100;2023-05-02T16:47:05;7.30;;;4.00;;
39782;SDS011;25462;51.164;17.100;2023-05-02T16:52:10;12.60;;;6.10;;
39782;SDS011;25462;51.164;17.100;2023-05-02T16:57:14;11.10;;;5.00;;
39782;SDS011;25462;51.164;17.100;2023-05-02T17:02:23;10.40;;;5.40;;
39782;SDS011;25462;51.164;17.100;2023-05-02T17:07:28;6.40;;;4.50;;
39782;SDS011;25462;51.164;17.100;2023-05-02T17:12:32;7.40;;;4.80;;
39782;SDS011;25462;51.164;17.100;2023-05-02T17:17:35;8.10;;;5.20;;
39782;SDS011;25462;51.164;17.100;2023-05-02T17:22:42;8.00;;;5.00;;
39782;SDS011;25462;51.164;17.100;2023-05-02T17:27:46;7.30;;;4.30;;
39782;SDS011;25462;51.164;17.100;2023-05-02T17:32:50;6.40;;;4.60;;
39782;SDS011;25462;51.164;17.100;2023-05-02T17:37:54;7.80;;;5.30;;
39782;SDS011;25462;51.164;17.100;2023-05-02T17:43:00;9.10;;;5.10;;
39782;SDS011;25462;51.164;17.100;2023-05-02T17:48:05;7.90;;;5.30;;
39782;SDS011;25462;51.164;17.100;2023-05-02T17:53:09;11.10;;;5.80;;
39782;SDS011;25462;51.164;17.100;2023-05-02T17:58:15;8.50;;;5.70;;
39782;SDS011;25462;51.164;17.100;2023-05-02T18:03:21;8.00;;;5.60;;
39782;SDS011;25462;51.164;17.100;2023-05-02T18:08:28;11.70;;;6.30;;
39782;SDS011;25462;51.164;17.100;2023-05-02T18:13:34;11.90;;;6.10;;
39782;SDS011;25462;51.164;17.100;2023-05-02T18:18:44;9.40;;;5.80;;
39782;SDS011;25462;51.164;17.100;2023-05-02T18:23:49;9.20;;;6.10;;
39782;SDS011;25462;51.164;17.100;2023-05-02T18:28:57;8.80;;;6.90;;
39782;SDS011;25462;51.164;17.100;2023-05-02T18:34:01;9.20;;;6.60;;
39782;SDS011;25462;51.164;17.100;2023-05-02T18:39:06;12.60;;;6.50;;
39782;SDS011;25462;51.164;17.100;2023-05-02T18:44:10;10.90;;;6.90;;
39782;SDS011;25462;51.164;17.100;2023-05-02T18:49:20;11.00;;;7.10;;
39782;SDS011;25462;51.164;17.100;2023-05-02T18:54:25;9.40;;;6.40;;
39782;SDS011;25462;51.164;17.100;2023-05-02T18:59:32;10.10;;;6.50;;
39782;SDS011;25462;51.164;17.100;2023-05-02T19:04:38;9.70;;;6.20;;
39782;SDS011;25462;51.164;17.100;2023-05-02T19:09:45;8.20;;;6.30;;
39782;SDS011;25462;51.164;17.100;2023-05-02T19:14:50;8.10;;;6.50;;
39782;SDS011;25462;51.164;17.100;2023-05-02T19:19:58;10.50;;;6.50;;
39782;SDS011;25462;51.164;17.100;2023-05-02T19:25:03;8.60;;;5.80;;
39782;SDS011;25462;51.164;17.100;2023-05-02T19:30:12;12.10;;;5.70;;
39782;SDS011;25462;51.164;17.100;2023-05-02T19:35:17;7.00;;;4.80;;
39782;SDS011;25462;51.164;17.100;2023-05-02T19:40:24;8.40;;;5.50;;
39782;SDS011;25462;51.164;17.100;2023-05-02T19:45:35;12.10;;;6.30;;
39782;SDS011;25462;51.164;17.100;2023-05-02T19:50:42;8.10;;;5.40;;
39782;SDS011;25462;51.164;17.100;2023-05-02T19:55:47;12.70;;;5.70;;
39782;SDS011;25462;51.164;17.100;2023-05-02T20:00:52;10.20;;;5.20;;
39782;SDS011;25462;51.164;17.100;2023-05-02T20:05:58;9.20;;;4.70;;
39782;SDS011;25462;51.164;17.100;2023-05-02T20:11:02;10.40;;;5.30;;
39782;SDS011;25462;51.164;17.100;2023-05-02T20:16:09;6.40;;;4.70;;
39782;SDS011;25462;51.164;17.100;2023-05-02T20:21:14;7.40;;;5.10;;
39782;SDS011;25462;51.164;17.100;2023-05-02T20:26:19;8.70;;;5.60;;
39782;SDS011;25462;51.164;17.100;2023-05-02T20:31:25;7.60;;;5.60;;
39782;SDS011;25462;51.164;17.100;2023-05-02T20:36:29;12.70;;;5.60;;
39782;SDS011;25462;51.164;17.100;2023-05-02T20:41:35;8.00;;;5.50;;
39782;SDS011;25462;51.164;17.100;2023-05-02T20:46:39;8.70;;;5.10;;
39782;SDS011;25462;51.164;17.100;2023-05-02T20:51:43;8.70;;;5.40;;
39782;SDS011;25462;51.164;17.100;2023-05-02T20:56:47;11.20;;;5.60;;
39782;SDS011;25462;51.164;17.100;2023-05-02T21:01:52;7.60;;;5.10;;
39782;SDS011;25462;51.164;17.100;2023-05-02T21:06:57;7.80;;;4.80;;
39782;SDS011;25462;51.164;17.100;2023-05-02T21:12:01;7.00;;;4.70;;
39782;SDS011;25462;51.164;17.100;2023-05-02T21:17:07;6.80;;;4.40;;
39782;SDS011;25462;51.164;17.100;2023-05-02T21:22:12;7.20;;;4.80;;
39782;SDS011;25462;51.164;17.100;2023-05-02T21:27:19;6.50;;;4.20;;
39782;SDS011;25462;51.164;17.100;2023-05-02T21:32:23;7.40;;;4.70;;
39782;SDS011;25462;51.164;17.100;2023-05-02T21:37:30;9.80;;;4.50;;
39782;SDS011;25462;51.164;17.100;2023-05-02T21:42:35;11.70;;;5.00;;
39782;SDS011;25462;51.164;17.100;2023-05-02T21:47:39;7.90;;;5.50;;
39782;SDS011;25462;51.164;17.100;2023-05-02T21:52:44;7.00;;;4.50;;
39782;SDS011;25462;51.164;17.100;2023-05-02T21:57:50;7.90;;;5.10;;
39782;SDS011;25462;51.164;17.100;2023-05-02T22:02:54;11.70;;;5.70;;
39782;SDS011;25462;51.164;17.100;2023-05-02T22:07:59;8.60;;;5.40;;
39782;SDS011;25462;51.164;17.100;2023-05-02T22:13:06;8.00;;;4.80;;
39782;SDS011;25462;51.164;17.100;2023-05-02T22:18:15;10.00;;;5.30;;
39782;SDS011;25462;51.164;17.100;2023-05-02T22:23:19;10.60;;;4.90;;
39782;SDS011;25462;51.164;17.100;2023-05-02T22:28:23;11.90;;;5.10;;
39782;SDS011;25462;51.164;17.100;2023-05-02T22:33:27;11.90;;;5.40;;
39782;SDS011;25462;51.164;17.100;2023-05-02T22:38:31;9.70;;;5.40;;
39782;SDS011;25462;51.164;17.100;2023-05-02T22:43:36;10.40;;;6.00;;
39782;SDS011;25462;51.164;17.100;2023-05-02T22:48:40;8.40;;;4.70;;
39782;SDS011;25462;51.164;17.100;2023-05-02T22:53:45;12.10;;;5.00;;
39782;SDS011;25462;51.164;17.100;2023-05-02T22:58:49;10.60;;;5.50;;
39782;SDS011;25462;51.164;17.100;2023-05-02T23:03:52;11.30;;;5.90;;
39782;SDS011;25462;51.164;17.100;2023-05-02T23:08:57;13.00;;;6.30;;
39782;SDS011;25462;51.164;17.100;2023-05-02T23:14:00;14.70;;;5.30;;
39782;SDS011;25462;51.164;17.100;2023-05-02T23:19:04;13.90;;;6.10;;
39782;SDS011;25462;51.164;17.100;2023-05-02T23:24:09;10.60;;;5.30;;
39782;SDS011;25462;51.164;17.100;2023-05-02T23:29:13;12.90;;;5.40;;
39782;SDS011;25462;51.164;17.100;2023-05-02T23:34:17;13.10;;;5.90;;
39782;SDS011;25462;51.164;17.100;2023-05-02T23:39:24;14.10;;;6.70;;
39782;SDS011;25462;51.164;17.100;2023-05-02T23:44:29;11.20;;;6.30;;
39782;SDS011;25462;51.164;17.100;2023-05-02T23:49:34;13.00;;;5.60;;
39782;SDS011;25462;51.164;17.100;2023-05-02T23:54:40;10.00;;;4.50;;
39782;SDS011;25462;51.164;17.100;2023-05-02T23:59:43;10.40;;;4.40;;
